Time;durP1;ratioP1;P1;durP2;ratioP2;P2;SDS_P1;SDS_P2;PMS_P1;PMS_P2;Temp;Humidity;BMP_temperature;BMP_pressure;BME280_temperature;BME280_humidity;BME280_pressure;Samples;Min_cycle;Max_cycle;Signal;HPM_P1;HPM_P2
2023/10/21 00:00:59;;;;;;;2.03;0.40;;;13.50;99.90;;;;;;4958210;28;20031;-85
2023/10/21 00:03:25;;;;;;;0.52;0.50;;;13.50;99.90;;;;;;4958069;28;20026;-85
2023/10/21 00:05:51;;;;;;;0.22;0.22;;;13.60;99.90;;;;;;4943957;28;20059;-84
2023/10/21 00:08:16;;;;;;;0.30;0.30;;;13.60;99.90;;;;;;4945071;28;20051;-85
2023/10/21 00:10:42;;;;;;;0.20;0.20;;;13.60;99.90;;;;;;4960766;28;20494;-84
2023/10/21 00:13:08;;;;;;;0.10;0.10;;;13.60;99.90;;;;;;4950868;28;20069;-85
2023/10/21 00:15:34;;;;;;;0.22;0.22;;;13.60;99.90;;;;;;4941345;28;20358;-84
2023/10/21 00:17:59;;;;;;;0.22;0.22;;;13.60;99.90;;;;;;4944274;28;20037;-85
2023/10/21 00:20:25;;;;;;;0.70;0.70;;;13.70;99.90;;;;;;4943531;28;20034;-85
2023/10/21 00:22:51;;;;;;;0.35;0.35;;;13.70;99.90;;;;;;4942401;28;20031;-85
2023/10/21 00:25:17;;;;;;;0.20;0.20;;;13.70;99.90;;;;;;4942448;28;20038;-85
2023/10/21 00:27:42;;;;;;;0.40;0.40;;;13.70;99.90;;;;;;4959487;28;20423;-84
2023/10/21 00:30:11;;;;;;;0.20;0.20;;;13.70;99.90;;;;;;4944415;28;20137;-85
2023/10/21 00:32:37;;;;;;;0.52;0.52;;;13.70;99.90;;;;;;4961343;28;20360;-85
2023/10/21 00:35:05;;;;;;;0.43;0.43;;;13.70;99.90;;;;;;4941623;28;20030;-87
2023/10/21 00:37:31;;;;;;;0.30;0.30;;;13.70;99.90;;;;;;4965809;28;20029;-84
2023/10/21 00:39:57;;;;;;;0.20;0.20;;;13.80;99.90;;;;;;4960336;28;20110;-84
2023/10/21 00:42:24;;;;;;;0.20;0.20;;;13.80;99.90;;;;;;4944891;28;20094;-85
2023/10/21 00:44:50;;;;;;;0.65;0.65;;;13.80;99.90;;;;;;4962548;28;20042;-84
2023/10/21 00:47:16;;;;;;;0.20;0.20;;;13.80;99.90;;;;;;4949279;28;20380;-85
2023/10/21 00:49:42;;;;;;;0.20;0.20;;;13.80;99.90;;;;;;4972570;28;20088;-84
2023/10/21 00:52:07;;;;;;;0.30;0.30;;;13.80;99.90;;;;;;4956014;28;20030;-85
2023/10/21 00:54:33;;;;;;;0.65;0.65;;;13.80;99.90;;;;;;4944123;28;20023;-84
2023/10/21 00:56:59;;;;;;;0.35;0.35;;;13.90;99.90;;;;;;4959365;28;20403;-84
2023/10/21 00:59:27;;;;;;;0.20;0.20;;;13.80;99.90;;;;;;4960072;28;20035;-84
2023/10/21 01:01:52;;;;;;;0.30;0.30;;;13.80;99.90;;;;;;4944618;28;20028;-85
2023/10/21 01:04:19;;;;;;;0.20;0.20;;;13.80;99.90;;;;;;4959179;28;20102;-85
2023/10/21 01:06:44;;;;;;;0.20;0.20;;;13.70;99.90;;;;;;4942316;28;20368;-84
2023/10/21 01:09:16;;;;;;;0.30;0.30;;;13.80;99.90;;;;;;4961738;28;20045;-85
2023/10/21 01:11:42;;;;;;;0.47;0.47;;;13.80;99.90;;;;;;4961748;28;20101;-84
2023/10/21 01:14:09;;;;;;;0.20;0.20;;;13.80;99.90;;;;;;4941624;28;20051;-87
2023/10/21 01:16:35;;;;;;;0.30;0.30;;;13.80;99.90;;;;;;4956402;28;20033;-84
2023/10/21 01:19:00;;;;;;;0.30;0.30;;;13.90;99.90;;;;;;4959583;28;20484;-84
2023/10/21 01:21:26;;;;;;;0.52;0.40;;;13.90;99.90;;;;;;4957499;28;20031;-84
2023/10/21 01:23:52;;;;;;;0.20;0.20;;;13.80;99.90;;;;;;4941979;28;20403;-85
2023/10/21 01:26:18;;;;;;;0.20;0.20;;;13.80;99.90;;;;;;4942407;28;20428;-84
2023/10/21 01:28:44;;;;;;;0.20;0.20;;;13.90;99.90;;;;;;4961407;28;20020;-84
2023/10/21 01:31:09;;;;;;;0.22;0.22;;;13.80;99.90;;;;;;4968094;28;20042;-84
2023/10/21 01:33:35;;;;;;;0.20;0.20;;;13.80;99.90;;;;;;4946053;28;20035;-85
2023/10/21 01:36:01;;;;;;;0.20;0.20;;;13.80;99.90;;;;;;4962934;28;20027;-84
2023/10/21 01:38:26;;;;;;;0.22;0.22;;;13.80;99.90;;;;;;4947301;28;20047;-84
2023/10/21 01:40:52;;;;;;;0.20;0.20;;;13.80;99.90;;;;;;4964926;28;20058;-84
2023/10/21 01:43:18;;;;;;;0.40;0.40;;;13.80;99.90;;;;;;4947966;28;20035;-84
2023/10/21 01:45:43;;;;;;;0.20;0.20;;;13.90;99.90;;;;;;4964629;28;20026;-85
2023/10/21 01:48:09;;;;;;;0.20;0.20;;;13.90;99.90;;;;;;4943018;28;20035;-85
2023/10/21 01:50:35;;;;;;;0.28;0.28;;;13.80;99.90;;;;;;4964124;28;20019;-85
2023/10/21 01:53:01;;;;;;;0.20;0.20;;;13.90;99.90;;;;;;4965472;28;20023;-84
2023/10/21 01:55:26;;;;;;;0.20;0.20;;;13.90;99.90;;;;;;4963537;28;20439;-84
2023/10/21 01:57:52;;;;;;;0.20;0.20;;;13.90;99.90;;;;;;4945628;28;20066;-84
2023/10/21 02:00:22;;;;;;;0.20;0.20;;;13.90;99.90;;;;;;4945759;28;20118;-84
2023/10/21 02:02:51;;;;;;;0.15;0.15;;;13.90;99.90;;;;;;4963851;28;20499;-84
2023/10/21 02:05:19;;;;;;;0.20;0.20;;;14.00;99.90;;;;;;4965464;28;20118;-84
2023/10/21 02:07:48;;;;;;;0.25;0.25;;;14.00;99.90;;;;;;4945255;28;20026;-86
2023/10/21 02:10:14;;;;;;;0.20;0.20;;;14.00;99.90;;;;;;4963902;28;20019;-85
2023/10/21 02:12:40;;;;;;;0.20;0.20;;;13.90;99.90;;;;;;4965838;28;20483;-85
2023/10/21 02:15:11;;;;;;;0.20;0.20;;;14.00;99.90;;;;;;4965368;28;20027;-87
2023/10/21 02:17:38;;;;;;;0.35;0.35;;;14.00;99.90;;;;;;4968225;28;20033;-85
2023/10/21 02:20:05;;;;;;;0.20;0.20;;;13.90;99.90;;;;;;4946927;28;20079;-85
2023/10/21 02:22:30;;;;;;;0.20;0.20;;;13.90;99.90;;;;;;4942180;28;20031;-85
2023/10/21 02:24:56;;;;;;;0.20;0.20;;;13.90;99.90;;;;;;4946977;28;20528;-84
2023/10/21 02:27:22;;;;;;;0.20;0.20;;;13.90;99.90;;;;;;4958521;28;20042;-86
2023/10/21 02:29:49;;;;;;;0.20;0.20;;;13.90;99.90;;;;;;4944827;28;20030;-86
2023/10/21 02:32:17;;;;;;;0.20;0.20;;;13.90;99.90;;;;;;4964355;28;20549;-86
2023/10/21 02:34:43;;;;;;;0.28;0.28;;;13.90;99.90;;;;;;4959363;28;20090;-86
2023/10/21 02:37:09;;;;;;;0.10;0.10;;;13.90;99.90;;;;;;4960404;28;20027;-86
2023/10/21 02:39:35;;;;;;;0.47;0.47;;;13.90;99.90;;;;;;4942758;28;20019;-86
2023/10/21 02:42:01;;;;;;;0.75;0.47;;;13.90;99.90;;;;;;4952757;28;20502;-85
2023/10/21 02:44:27;;;;;;;0.20;0.20;;;14.00;99.90;;;;;;4960425;28;20035;-86
2023/10/21 02:46:52;;;;;;;0.20;0.20;;;14.00;99.90;;;;;;4960278;28;20031;-86
2023/10/21 02:49:18;;;;;;;0.20;0.20;;;13.90;99.90;;;;;;4965166;28;20028;-86
2023/10/21 02:51:44;;;;;;;0.10;0.10;;;13.90;99.90;;;;;;4943854;28;20031;-86
2023/10/21 02:54:10;;;;;;;0.80;0.50;;;13.90;99.90;;;;;;4946182;28;20399;-86
2023/10/21 02:56:36;;;;;;;0.30;0.30;;;13.90;99.90;;;;;;4944787;28;20023;-86
2023/10/21 02:59:02;;;;;;;0.10;0.10;;;13.90;99.90;;;;;;4962466;28;20385;-86
2023/10/21 03:01:30;;;;;;;0.10;0.10;;;14.00;99.90;;;;;;4946813;28;20035;-86
2023/10/21 03:03:56;;;;;;;0.20;0.20;;;14.00;99.90;;;;;;4960692;28;20035;-85
2023/10/21 03:06:21;;;;;;;0.22;0.22;;;14.00;99.90;;;;;;4950003;28;20030;-86
2023/10/21 03:08:48;;;;;;;0.20;0.20;;;14.00;99.90;;;;;;4946959;28;20034;-86
2023/10/21 03:11:14;;;;;;;0.30;0.30;;;14.00;99.90;;;;;;4964823;28;20348;-86
2023/10/21 03:13:40;;;;;;;0.20;0.20;;;14.10;99.90;;;;;;4958913;28;20029;-86
2023/10/21 03:16:06;;;;;;;0.20;0.20;;;14.10;99.90;;;;;;4955179;28;20035;-85
2023/10/21 03:18:33;;;;;;;0.20;0.20;;;14.10;99.90;;;;;;4963524;28;20752;-86
2023/10/21 03:21:01;;;;;;;0.30;0.30;;;14.10;99.90;;;;;;4961152;28;20035;-85
2023/10/21 03:23:27;;;;;;;0.20;0.20;;;14.10;99.90;;;;;;4962795;28;20074;-86
2023/10/21 03:26:04;;;;;;;0.20;0.20;;;14.10;99.90;;;;;;4962224;28;20027;-85
2023/10/21 03:28:30;;;;;;;0.20;0.20;;;14.10;99.90;;;;;;4963897;28;20035;-86
2023/10/21 03:31:00;;;;;;;0.40;0.40;;;14.20;99.90;;;;;;4959002;28;20027;-86
2023/10/21 03:33:27;;;;;;;0.20;0.20;;;14.20;99.90;;;;;;4959237;28;20054;-86
2023/10/21 03:36:03;;;;;;;0.20;0.20;;;14.20;99.90;;;;;;4951563;28;20124;-86
2023/10/21 03:38:30;;;;;;;0.75;0.75;;;14.20;99.90;;;;;;4958655;28;20019;-85
2023/10/21 03:40:58;;;;;;;0.20;0.20;;;14.10;99.90;;;;;;4962350;28;20024;-85
2023/10/21 03:43:25;;;;;;;0.20;0.20;;;14.20;99.90;;;;;;4961302;28;20038;-86
2023/10/21 03:45:51;;;;;;;0.50;0.50;;;14.20;99.90;;;;;;4962228;28;20471;-86
2023/10/21 03:48:16;;;;;;;0.40;0.40;;;14.20;99.90;;;;;;4959697;28;20037;-86
2023/10/21 03:50:42;;;;;;;0.20;0.20;;;14.30;99.90;;;;;;4958709;28;20061;-86
2023/10/21 03:53:08;;;;;;;0.40;0.40;;;14.30;99.90;;;;;;4961873;28;20019;-86
2023/10/21 03:55:33;;;;;;;0.43;0.43;;;14.30;99.90;;;;;;4945670;28;20038;-86
2023/10/21 03:57:59;;;;;;;0.20;0.20;;;14.40;99.90;;;;;;4943137;28;20038;-86
2023/10/21 04:00:25;;;;;;;0.30;0.30;;;14.40;99.90;;;;;;4962231;28;20073;-85
2023/10/21 04:02:50;;;;;;;0.30;0.30;;;14.30;99.90;;;;;;4943085;28;20032;-86
2023/10/21 04:05:17;;;;;;;0.30;0.30;;;14.40;99.90;;;;;;4944755;28;20026;-85
2023/10/21 04:07:44;;;;;;;0.30;0.30;;;14.40;99.90;;;;;;4965168;28;20031;-86
2023/10/21 04:10:10;;;;;;;0.70;0.70;;;14.40;99.90;;;;;;4947627;28;20019;-87
2023/10/21 04:12:36;;;;;;;0.65;0.50;;;14.40;99.90;;;;;;4966247;28;20031;-86
2023/10/21 04:15:02;;;;;;;0.50;0.50;;;14.40;99.90;;;;;;4981402;28;20051;-86
2023/10/21 04:17:28;;;;;;;0.30;0.30;;;14.40;99.90;;;;;;4959580;28;20109;-86
2023/10/21 04:19:53;;;;;;;0.20;0.20;;;14.30;99.90;;;;;;4950806;28;20031;-87
2023/10/21 04:22:19;;;;;;;0.22;0.22;;;14.40;99.90;;;;;;4949322;28;20047;-86
2023/10/21 04:24:47;;;;;;;0.28;0.28;;;14.50;99.90;;;;;;4940047;28;20335;-87
2023/10/21 04:27:14;;;;;;;0.30;0.30;;;14.50;99.90;;;;;;4939967;28;20031;-86
2023/10/21 04:29:40;;;;;;;0.30;0.30;;;14.50;99.90;;;;;;4943772;28;20439;-86
2023/10/21 04:32:05;;;;;;;0.30;0.30;;;14.40;99.90;;;;;;4962814;28;20037;-86
2023/10/21 04:34:31;;;;;;;0.30;0.30;;;14.50;99.90;;;;;;4942814;28;20027;-85
2023/10/21 04:36:59;;;;;;;0.30;0.30;;;14.50;99.90;;;;;;4947456;28;20015;-85
2023/10/21 04:39:24;;;;;;;0.30;0.30;;;14.50;99.90;;;;;;4962370;28;20410;-85
2023/10/21 04:41:50;;;;;;;0.30;0.30;;;14.50;99.90;;;;;;4942299;28;20180;-85
2023/10/21 04:44:16;;;;;;;0.30;0.30;;;14.40;99.90;;;;;;4968439;28;20043;-84
2023/10/21 04:46:42;;;;;;;0.40;0.40;;;14.40;99.90;;;;;;4958494;28;20023;-85
2023/10/21 04:49:07;;;;;;;0.30;0.30;;;14.40;99.90;;;;;;4962709;28;20034;-86
2023/10/21 04:51:33;;;;;;;0.30;0.30;;;14.40;99.90;;;;;;4940323;28;20034;-85
2023/10/21 04:53:59;;;;;;;0.55;0.55;;;14.40;99.90;;;;;;4959287;28;20023;-85
2023/10/21 04:56:26;;;;;;;0.30;0.30;;;14.50;99.90;;;;;;4942036;28;20023;-86
2023/10/21 04:58:51;;;;;;;0.30;0.30;;;14.40;99.90;;;;;;4957986;28;20165;-85
2023/10/21 05:01:19;;;;;;;0.47;0.47;;;14.50;99.90;;;;;;4959526;28;20023;-85
2023/10/21 05:03:45;;;;;;;0.45;0.45;;;14.50;99.90;;;;;;4962909;28;20026;-85
2023/10/21 05:06:10;;;;;;;0.35;0.35;;;14.40;99.90;;;;;;4963977;28;20035;-86
2023/10/21 05:08:36;;;;;;;0.40;0.40;;;14.30;99.90;;;;;;4967007;28;20114;-85
2023/10/21 05:11:02;;;;;;;0.30;0.30;;;14.40;99.90;;;;;;4947182;28;20305;-85
2023/10/21 05:13:28;;;;;;;0.40;0.40;;;14.40;99.90;;;;;;4948238;28;20490;-85
2023/10/21 05:15:54;;;;;;;0.45;0.45;;;14.30;99.90;;;;;;4960404;28;20018;-85
2023/10/21 05:18:22;;;;;;;0.40;0.40;;;14.30;99.90;;;;;;4962963;28;20282;-85
2023/10/21 05:20:48;;;;;;;0.30;0.30;;;14.20;99.90;;;;;;4963659;28;20486;-86
2023/10/21 05:23:13;;;;;;;2.20;1.17;;;14.20;99.90;;;;;;4965309;28;20030;-86
2023/10/21 05:25:39;;;;;;;0.47;0.47;;;14.20;99.90;;;;;;4964160;28;20117;-85
2023/10/21 05:28:05;;;;;;;0.50;0.50;;;14.20;99.90;;;;;;4964145;28;20603;-86
2023/10/21 05:30:31;;;;;;;0.20;0.20;;;14.20;99.90;;;;;;4949757;28;20018;-86
2023/10/21 05:32:59;;;;;;;0.40;0.40;;;14.30;99.90;;;;;;4947875;28;20031;-85
2023/10/21 05:35:24;;;;;;;0.57;0.57;;;14.40;99.90;;;;;;4961740;28;20019;-85
2023/10/21 05:37:50;;;;;;;0.30;0.30;;;14.40;99.90;;;;;;4961663;28;20026;-85
2023/10/21 05:40:16;;;;;;;0.30;0.30;;;14.40;99.90;;;;;;4945959;28;20027;-85
2023/10/21 05:42:41;;;;;;;0.30;0.30;;;14.40;99.90;;;;;;4962680;28;20045;-86
2023/10/21 05:45:10;;;;;;;0.40;0.40;;;14.40;99.90;;;;;;4967522;28;20022;-86
2023/10/21 05:47:35;;;;;;;0.30;0.30;;;14.40;99.90;;;;;;4965780;28;20019;-85
2023/10/21 05:50:02;;;;;;;0.30;0.30;;;14.30;99.90;;;;;;4952960;28;20030;-85
2023/10/21 05:52:28;;;;;;;0.30;0.30;;;14.40;99.90;;;;;;4968273;28;20042;-85
2023/10/21 05:54:55;;;;;;;0.30;0.30;;;14.40;99.90;;;;;;4962114;28;20082;-85
2023/10/21 05:57:21;;;;;;;0.30;0.30;;;14.40;99.90;;;;;;4963412;28;20027;-85
2023/10/21 05:59:46;;;;;;;0.93;0.93;;;14.30;99.90;;;;;;4962069;28;21370;-85
2023/10/21 06:02:12;;;;;;;0.30;0.30;;;14.30;99.90;;;;;;4963723;28;20039;-85
2023/10/21 06:04:38;;;;;;;0.30;0.30;;;14.30;99.90;;;;;;4961014;28;20062;-85
2023/10/21 06:07:04;;;;;;;0.32;0.32;;;14.40;99.90;;;;;;4951523;28;20108;-86
2023/10/21 06:09:30;;;;;;;0.50;0.50;;;14.40;99.90;;;;;;4962431;28;20348;-86
2023/10/21 06:11:59;;;;;;;0.55;0.55;;;14.30;99.90;;;;;;4947970;28;20138;-85
2023/10/21 06:14:25;;;;;;;0.30;0.30;;;14.30;99.90;;;;;;4946389;28;20481;-85
2023/10/21 06:16:50;;;;;;;0.30;0.30;;;14.30;99.90;;;;;;4957311;28;20078;-85
2023/10/21 06:19:16;;;;;;;0.25;0.25;;;14.30;99.90;;;;;;4945966;28;20027;-85
2023/10/21 06:21:42;;;;;;;0.47;0.47;;;14.30;99.90;;;;;;4944252;28;20026;-86
2023/10/21 06:24:08;;;;;;;0.30;0.30;;;14.30;99.90;;;;;;4958878;28;20035;-85
2023/10/21 06:26:34;;;;;;;0.30;0.30;;;14.30;99.90;;;;;;4946933;28;20031;-85
2023/10/21 06:29:02;;;;;;;0.30;0.30;;;14.30;99.90;;;;;;4963716;28;20038;-87
2023/10/21 06:31:28;;;;;;;0.30;0.30;;;14.30;99.90;;;;;;4962497;28;20023;-85
2023/10/21 06:33:54;;;;;;;0.30;0.30;;;14.30;99.90;;;;;;4947738;28;20023;-85
2023/10/21 06:36:19;;;;;;;0.30;0.30;;;14.30;99.90;;;;;;4961429;28;20023;-85
2023/10/21 06:38:45;;;;;;;0.20;0.20;;;14.30;99.90;;;;;;4965524;28;20046;-85
2023/10/21 06:41:11;;;;;;;0.30;0.30;;;14.40;99.90;;;;;;4959573;28;20081;-85
2023/10/21 06:43:37;;;;;;;0.30;0.30;;;14.40;99.90;;;;;;4945056;28;20030;-85
2023/10/21 06:46:03;;;;;;;0.22;0.22;;;14.40;99.90;;;;;;4944874;28;20043;-85
2023/10/21 06:48:29;;;;;;;0.20;0.20;;;14.50;99.90;;;;;;4958115;28;20054;-85
2023/10/21 06:50:56;;;;;;;0.30;0.30;;;14.50;99.90;;;;;;4962682;28;20026;-85
2023/10/21 06:53:21;;;;;;;0.30;0.30;;;14.50;99.90;;;;;;4944544;28;20430;-85
2023/10/21 06:55:48;;;;;;;0.20;0.20;;;14.60;99.90;;;;;;4962415;28;20027;-85
2023/10/21 06:58:16;;;;;;;0.20;0.20;;;14.60;99.90;;;;;;4962365;28;20031;-84
2023/10/21 07:00:42;;;;;;;0.20;0.20;;;14.70;99.90;;;;;;4944807;28;20371;-85
2023/10/21 07:03:08;;;;;;;0.20;0.20;;;14.70;99.90;;;;;;4944570;28;20034;-85
2023/10/21 07:05:37;;;;;;;0.40;0.40;;;14.80;99.90;;;;;;4943548;28;20126;-85
2023/10/21 07:08:04;;;;;;;0.30;0.30;;;14.80;99.90;;;;;;4959610;28;20031;-84
2023/10/21 07:10:32;;;;;;;0.50;0.50;;;14.80;99.90;;;;;;4942912;28;20483;-85
2023/10/21 07:13:01;;;;;;;0.20;0.20;;;14.90;99.90;;;;;;4962328;28;20314;-85
2023/10/21 07:15:33;;;;;;;0.20;0.20;;;14.90;99.90;;;;;;4962831;28;20530;-85
2023/10/21 07:17:59;;;;;;;0.27;0.27;;;14.90;99.90;;;;;;4962018;28;20356;-85
2023/10/21 07:20:28;;;;;;;0.20;0.20;;;14.90;99.90;;;;;;4961398;28;20034;-85
2023/10/21 07:22:54;;;;;;;0.30;0.30;;;14.90;99.90;;;;;;4964322;28;20023;-86
2023/10/21 07:25:19;;;;;;;0.10;0.10;;;14.80;99.90;;;;;;4959831;28;20046;-85
2023/10/21 07:27:46;;;;;;;0.20;0.20;;;14.80;99.90;;;;;;4943109;28;20034;-85
2023/10/21 07:30:12;;;;;;;0.20;0.20;;;14.90;99.90;;;;;;4963740;28;20754;-85
2023/10/21 07:32:38;;;;;;;0.17;0.17;;;15.00;99.90;;;;;;4961383;28;20023;-86
2023/10/21 07:35:04;;;;;;;0.30;0.30;;;14.90;99.90;;;;;;4943460;28;20030;-85
2023/10/21 07:37:30;;;;;;;0.20;0.20;;;15.00;99.90;;;;;;4943747;28;20030;-85
2023/10/21 07:39:58;;;;;;;0.20;0.20;;;15.00;99.90;;;;;;4957345;28;20042;-85
2023/10/21 07:42:26;;;;;;;0.20;0.20;;;15.00;99.90;;;;;;4942368;28;20031;-82
2023/10/21 07:44:53;;;;;;;8.82;5.57;;;14.90;99.90;;;;;;4942482;28;20065;-84
2023/10/21 07:47:20;;;;;;;0.20;0.20;;;14.90;99.90;;;;;;4944158;28;20035;-85
2023/10/21 07:49:46;;;;;;;0.15;0.15;;;15.00;99.90;;;;;;4944367;28;20102;-85
2023/10/21 07:52:13;;;;;;;0.20;0.20;;;15.00;99.90;;;;;;4964102;28;20023;-86
2023/10/21 07:54:41;;;;;;;0.20;0.20;;;15.00;99.90;;;;;;4963202;28;20023;-85
2023/10/21 07:57:06;;;;;;;0.20;0.20;;;15.00;99.90;;;;;;4960410;28;20022;-85
2023/10/21 07:59:32;;;;;;;0.35;0.35;;;15.10;99.90;;;;;;4959373;28;20407;-86
2023/10/21 08:01:58;;;;;;;0.20;0.20;;;15.00;99.90;;;;;;4962581;28;20074;-85
2023/10/21 08:04:23;;;;;;;0.38;0.38;;;15.00;99.90;;;;;;4959397;28;20059;-85
2023/10/21 08:06:49;;;;;;;0.80;0.80;;;15.00;99.90;;;;;;4959605;28;20040;-82
2023/10/21 08:09:16;;;;;;;0.20;0.20;;;15.10;99.90;;;;;;4957179;28;20538;-86
2023/10/21 08:11:45;;;;;;;0.20;0.20;;;15.00;99.90;;;;;;4959350;28;20399;-87
2023/10/21 08:14:11;;;;;;;0.13;0.13;;;15.10;99.90;;;;;;4944242;28;20027;-86
2023/10/21 08:16:37;;;;;;;0.30;0.30;;;15.20;99.90;;;;;;4944944;28;20074;-85
2023/10/21 08:19:04;;;;;;;0.20;0.20;;;15.20;99.90;;;;;;4958956;28;20110;-87
2023/10/21 08:21:31;;;;;;;0.22;0.22;;;15.30;99.90;;;;;;4961268;28;20026;-85
2023/10/21 08:23:57;;;;;;;0.20;0.20;;;15.30;99.90;;;;;;4945811;28;20055;-87
2023/10/21 08:26:28;;;;;;;0.20;0.20;;;15.30;99.90;;;;;;4942328;28;20303;-87
2023/10/21 08:28:56;;;;;;;1.85;1.45;;;15.40;99.90;;;;;;4959271;28;20391;-90
2023/10/21 08:31:22;;;;;;;0.32;0.32;;;15.30;99.90;;;;;;4960750;28;20028;-87
2023/10/21 08:33:48;;;;;;;0.10;0.10;;;15.40;99.90;;;;;;4955975;28;20033;-86
2023/10/21 08:36:18;;;;;;;0.20;0.20;;;15.30;99.90;;;;;;4967772;28;20031;-86
2023/10/21 08:38:44;;;;;;;0.17;0.17;;;15.30;99.90;;;;;;4961959;28;20030;-88
2023/10/21 08:41:12;;;;;;;0.10;0.10;;;15.40;99.90;;;;;;4943147;28;20050;-86
2023/10/21 08:43:38;;;;;;;0.10;0.10;;;15.40;99.90;;;;;;4945887;28;20023;-86
2023/10/21 08:46:08;;;;;;;0.10;0.10;;;15.30;99.90;;;;;;4951500;28;20522;-86
2023/10/21 08:48:36;;;;;;;0.20;0.20;;;15.40;99.90;;;;;;4948196;28;20392;-87
2023/10/21 08:51:09;;;;;;;0.50;0.50;;;15.50;99.90;;;;;;4942362;28;20073;-88
2023/10/21 08:53:38;;;;;;;0.70;0.70;;;15.50;99.90;;;;;;4953928;28;20114;-85
2023/10/21 08:56:06;;;;;;;0.45;0.45;;;15.60;99.90;;;;;;4945280;28;20031;-86
2023/10/21 08:58:32;;;;;;;0.10;0.10;;;15.70;99.90;;;;;;4958427;28;20026;-87
2023/10/21 09:00:59;;;;;;;0.10;0.10;;;15.60;99.90;;;;;;4940517;28;20129;-86
2023/10/21 09:03:25;;;;;;;0.17;0.17;;;15.50;99.90;;;;;;4943751;28;20054;-87
2023/10/21 09:06:11;;;;;;;0.20;0.20;;;15.50;99.90;;;;;;4941378;28;20482;-86
2023/10/21 09:08:40;;;;;;;0.20;0.20;;;15.50;99.90;;;;;;4954786;28;20155;-85
2023/10/21 09:11:07;;;;;;;0.10;0.10;;;15.50;99.90;;;;;;4944709;28;20027;-88
2023/10/21 09:13:37;;;;;;;0.10;0.10;;;15.40;99.90;;;;;;4957672;28;20134;-88
2023/10/21 09:16:06;;;;;;;0.10;0.10;;;15.40;99.90;;;;;;4957567;28;20202;-86
2023/10/21 09:18:35;;;;;;;0.20;0.20;;;15.40;99.90;;;;;;4941126;28;20041;-86
2023/10/21 09:21:02;;;;;;;0.20;0.20;;;15.40;99.90;;;;;;4962115;28;20070;-87
2023/10/21 09:23:28;;;;;;;0.10;0.10;;;15.40;99.90;;;;;;4961173;28;20035;-87
2023/10/21 09:25:54;;;;;;;0.10;0.10;;;15.40;99.90;;;;;;4950122;28;20015;-86
2023/10/21 09:28:24;;;;;;;0.20;0.20;;;15.60;99.90;;;;;;4941172;28;20125;-86
2023/10/21 09:31:01;;;;;;;0.20;0.20;;;15.60;99.90;;;;;;4957521;28;20023;-86
2023/10/21 09:33:30;;;;;;;0.10;0.10;;;15.90;99.90;;;;;;4962958;28;20030;-91
2023/10/21 09:36:06;;;;;;;0.20;0.20;;;16.10;99.90;;;;;;4942486;28;20049;-87
2023/10/21 09:38:39;;;;;;;0.25;0.25;;;16.30;99.90;;;;;;4956257;28;20027;-87
2023/10/21 09:41:08;;;;;;;;;;;16.50;99.90;;;;;;4946787;28;20067;-86
2023/10/21 09:43:38;;;;;;;0.20;0.20;;;16.30;99.90;;;;;;4938805;28;19918;-85
2023/10/21 09:46:05;;;;;;;0.30;0.30;;;16.20;99.90;;;;;;4957819;28;20089;-87
2023/10/21 09:48:38;;;;;;;0.20;0.20;;;16.40;99.90;;;;;;4961315;28;20582;-86
2023/10/21 09:51:09;;;;;;;0.20;0.20;;;16.60;99.90;;;;;;4961980;28;20475;-85
2023/10/21 09:53:40;;;;;;;0.45;0.45;;;16.80;99.90;;;;;;4964940;28;20075;-85
2023/10/21 09:56:10;;;;;;;0.20;0.20;;;16.90;99.90;;;;;;4961774;28;20055;-89
2023/10/21 09:58:38;;;;;;;0.20;0.20;;;17.00;99.90;;;;;;4945035;28;20023;-84
2023/10/21 10:01:05;;;;;;;0.20;0.20;;;17.50;99.90;;;;;;4947642;28;20045;-84
2023/10/21 10:03:34;;;;;;;0.30;0.30;;;17.60;99.90;;;;;;4960050;28;20114;-84
2023/10/21 10:06:05;;;;;;;1.05;1.00;;;17.40;99.90;;;;;;4959549;28;20031;-88
2023/10/21 10:08:35;;;;;;;0.43;0.43;;;17.20;99.90;;;;;;4947791;28;20137;-79
2023/10/21 10:11:10;;;;;;;0.20;0.20;;;17.30;99.90;;;;;;4962356;28;20027;-80
2023/10/21 10:13:42;;;;;;;0.20;0.20;;;17.30;99.90;;;;;;4959549;28;20041;-81
2023/10/21 10:16:25;;;;;;;0.20;0.20;;;17.20;99.90;;;;;;4958568;28;20089;-88
2023/10/21 10:18:51;;;;;;;0.20;0.20;;;17.10;99.90;;;;;;4962957;28;20269;-90
2023/10/21 10:21:18;;;;;;;0.20;0.20;;;17.50;99.90;;;;;;4944083;28;20094;-88
2023/10/21 10:24:02;;;;;;;0.20;0.20;;;17.60;99.90;;;;;;4948748;28;20033;-85
2023/10/21 10:26:38;;;;;;;0.20;0.20;;;17.30;99.90;;;;;;4944239;28;20109;-84
2023/10/21 10:29:26;;;;;;;0.20;0.20;;;17.40;99.90;;;;;;4945507;28;20084;-87
2023/10/21 10:32:11;;;;;;;0.20;0.20;;;17.60;99.90;;;;;;4959929;28;20732;-86
2023/10/21 10:34:52;;;;;;;0.30;0.30;;;17.70;99.90;;;;;;4960494;28;20471;-86
2023/10/21 10:37:37;;;;;;;0.30;0.30;;;17.90;99.90;;;;;;4957614;28;20126;-79
2023/10/21 10:40:18;;;;;;;1.02;1.02;;;18.00;99.90;;;;;;4957717;28;20035;-83
2023/10/21 10:42:44;;;;;;;0.20;0.20;;;18.00;99.90;;;;;;4942268;28;20394;-86
2023/10/21 10:45:10;;;;;;;0.30;0.30;;;17.80;99.90;;;;;;4963046;28;20023;-85
2023/10/21 10:47:37;;;;;;;0.30;0.30;;;17.70;99.90;;;;;;4964245;28;20118;-85
2023/10/21 10:50:12;;;;;;;0.40;0.40;;;17.50;99.90;;;;;;4961709;28;20031;-86
2023/10/21 10:52:39;;;;;;;0.30;0.30;;;17.70;99.90;;;;;;4959836;28;20023;-88
2023/10/21 10:55:08;;;;;;;0.30;0.30;;;17.90;99.90;;;;;;4949772;28;20026;-91
2023/10/21 10:57:34;;;;;;;0.30;0.30;;;17.70;99.90;;;;;;5018967;22;20132;-88
2023/10/21 11:00:00;;;;;;;0.25;0.25;;;17.50;99.90;;;;;;4998939;28;20115;-92
2023/10/21 11:02:28;;;;;;;0.20;0.20;;;17.60;99.90;;;;;;4991734;28;20038;-90
2023/10/21 11:04:59;;;;;;;0.20;0.20;;;17.50;99.90;;;;;;5008711;28;20391;-87
2023/10/21 11:07:30;;;;;;;0.20;0.20;;;17.40;99.90;;;;;;4984613;28;20478;-87
2023/10/21 11:10:06;;;;;;;0.30;0.30;;;17.60;99.90;;;;;;4991638;28;20092;-86
2023/10/21 11:12:34;;;;;;;0.40;0.40;;;17.70;99.90;;;;;;4986143;28;20160;-88
2023/10/21 11:15:01;;;;;;;0.20;0.20;;;18.00;99.90;;;;;;4987720;28;20018;-90
2023/10/21 11:17:26;;;;;;;0.25;0.25;;;18.00;99.90;;;;;;4994386;28;20420;-87
2023/10/21 11:19:52;;;;;;;0.30;0.30;;;18.20;99.90;;;;;;4996605;28;20053;-88
2023/10/21 11:22:26;;;;;;;0.30;0.30;;;18.20;99.90;;;;;;4976450;28;20026;-85
2023/10/21 11:24:55;;;;;;;0.30;0.30;;;18.50;99.90;;;;;;4994348;28;20081;-84
2023/10/21 11:27:24;;;;;;;0.30;0.30;;;18.40;99.90;;;;;;4980723;28;20068;-87
2023/10/21 11:29:52;;;;;;;0.30;0.30;;;18.30;99.90;;;;;;4995545;28;20555;-85
2023/10/21 11:32:28;;;;;;;0.20;0.20;;;18.20;99.90;;;;;;4991088;28;20022;-84
2023/10/21 11:34:58;;;;;;;0.28;0.28;;;18.40;99.90;;;;;;4978583;28;20118;-88
2023/10/21 11:37:24;;;;;;;0.30;0.30;;;18.20;99.90;;;;;;4980393;28;20026;-90
2023/10/21 11:39:50;;;;;;;0.30;0.30;;;18.40;99.90;;;;;;4991811;28;20034;-86
2023/10/21 11:42:19;;;;;;;0.20;0.20;;;18.40;99.90;;;;;;4981533;28;20054;-88
2023/10/21 11:45:00;;;;;;;0.30;0.30;;;18.70;99.90;;;;;;4992855;28;20120;-85
2023/10/21 11:47:27;;;;;;;0.40;0.40;;;19.00;99.90;;;;;;4971464;28;20036;-83
2023/10/21 11:49:57;;;;;;;0.30;0.30;;;18.90;99.90;;;;;;4994910;28;20057;-83
2023/10/21 11:52:25;;;;;;;0.30;0.30;;;18.80;99.90;;;;;;4976256;28;20104;-83
2023/10/21 12:04:17;;;;;;;0.30;0.30;;;19.00;99.90;;;;;;4938633;28;20125;-82
2023/10/21 12:17:04;;;;;;;0.28;0.28;;;19.00;99.90;;;;;;4994066;28;20225;-88
2023/10/21 12:38:22;;;;;;;0.30;0.30;;;18.80;99.90;;;;;;4991217;28;20044;-91
2023/10/21 12:43:35;;;;;;;0.40;0.40;;;19.80;99.00;;;;;;4994698;28;20049;-90
2023/10/21 12:46:25;;;;;;;0.57;0.57;;;20.50;96.80;;;;;;4976034;28;20659;-91
2023/10/21 12:48:52;;;;;;;0.55;0.55;;;20.70;95.10;;;;;;5004313;28;20110;-90
2023/10/21 12:51:23;;;;;;;1.13;0.60;;;20.70;95.30;;;;;;4999633;28;20441;-91
2023/10/21 12:53:49;;;;;;;0.47;0.47;;;20.90;93.70;;;;;;5006930;28;20022;-91
2023/10/21 12:56:15;;;;;;;0.70;0.70;;;21.30;93.60;;;;;;4992428;28;20041;-91
2023/10/21 12:58:42;;;;;;;0.95;0.95;;;21.60;92.10;;;;;;4974406;28;20038;-90
2023/10/21 13:01:15;;;;;;;0.80;0.80;;;21.20;92.30;;;;;;5040400;23;20046;-84
2023/10/21 13:03:42;;;;;;;0.50;0.50;;;21.40;91.60;;;;;;5277308;23;20020;-96
2023/10/21 13:06:11;;;;;;;0.45;0.40;;;21.30;91.80;;;;;;5056384;23;20493;-89
2023/10/21 13:08:39;;;;;;;0.40;0.40;;;21.10;92.60;;;;;;4973009;28;20034;-88
2023/10/21 13:11:08;;;;;;;1.35;0.63;;;20.60;94.00;;;;;;4971194;28;20030;-87
2023/10/21 13:13:36;;;;;;;0.55;0.55;;;20.10;93.90;;;;;;4990784;28;20484;-88
2023/10/21 13:16:03;;;;;;;0.47;0.47;;;19.70;95.60;;;;;;4972481;28;20057;-86
2023/10/21 13:18:29;;;;;;;0.20;0.20;;;19.20;96.90;;;;;;4985732;28;20084;-85
2023/10/21 13:20:57;;;;;;;0.40;0.40;;;18.80;98.30;;;;;;4975062;28;20030;-83
2023/10/21 13:23:25;;;;;;;0.43;0.43;;;18.60;99.50;;;;;;4987131;28;20034;-80
2023/10/21 13:25:51;;;;;;;0.30;0.30;;;19.20;98.90;;;;;;5004201;28;20107;-75
2023/10/21 13:28:17;;;;;;;0.35;0.35;;;20.00;97.00;;;;;;4995885;28;20101;-84
2023/10/21 13:30:47;;;;;;;0.50;0.50;;;20.40;94.80;;;;;;4995372;28;20061;-80